sensor_id;sensor_type;location;lat;lon;timestamp;P1;durP1;ratioP1;P2;durP2;ratioP2
4634;SDS011;2330;48.158;11.816;2024-02-26T00:00:41;4.45;;;4.13;;
4634;SDS011;2330;48.158;11.816;2024-02-26T00:03:08;5.10;;;4.70;;
4634;SDS011;2330;48.158;11.816;2024-02-26T00:05:34;4.60;;;4.30;;
4634;SDS011;2330;48.158;11.816;2024-02-26T00:08:01;4.93;;;4.57;;
4634;SDS011;2330;48.158;11.816;2024-02-26T00:10:31;4.32;;;4.03;;
4634;SDS011;2330;48.158;11.816;2024-02-26T00:12:57;3.80;;;3.58;;
4634;SDS011;2330;48.158;11.816;2024-02-26T00:15:24;4.10;;;3.80;;
4634;SDS011;2330;48.158;11.816;2024-02-26T00:17:51;4.45;;;4.15;;
4634;SDS011;2330;48.158;11.816;2024-02-26T00:20:18;5.15;;;4.10;;
4634;SDS011;2330;48.158;11.816;2024-02-26T00:22:45;3.77;;;3.47;;
4634;SDS011;2330;48.158;11.816;2024-02-26T00:25:12;4.38;;;4.00;;
4634;SDS011;2330;48.158;11.816;2024-02-26T00:27:39;4.07;;;3.78;;
4634;SDS011;2330;48.158;11.816;2024-02-26T00:30:08;4.20;;;3.90;;
4634;SDS011;2330;48.158;11.816;2024-02-26T00:32:35;3.63;;;3.42;;
4634;SDS011;2330;48.158;11.816;2024-02-26T00:35:02;3.90;;;3.60;;
4634;SDS011;2330;48.158;11.816;2024-02-26T00:37:29;3.63;;;3.33;;
4634;SDS011;2330;48.158;11.816;2024-02-26T00:39:56;3.97;;;3.67;;
4634;SDS011;2330;48.158;11.816;2024-02-26T00:42:23;3.40;;;3.20;;
4634;SDS011;2330;48.158;11.816;2024-02-26T00:44:50;3.85;;;3.55;;
4634;SDS011;2330;48.158;11.816;2024-02-26T00:47:16;3.43;;;3.23;;
4634;SDS011;2330;48.158;11.816;2024-02-26T00:49:43;3.83;;;3.53;;
4634;SDS011;2330;48.158;11.816;2024-02-26T00:52:10;4.83;;;3.20;;
4634;SDS011;2330;48.158;11.816;2024-02-26T00:54:37;2.95;;;2.75;;
4634;SDS011;2330;48.158;11.816;2024-02-26T00:57:04;2.90;;;2.70;;
4634;SDS011;2330;48.158;11.816;2024-02-26T00:59:30;3.47;;;3.17;;
4634;SDS011;2330;48.158;11.816;2024-02-26T01:01:57;3.50;;;3.30;;
4634;SDS011;2330;48.158;11.816;2024-02-26T01:04:26;3.05;;;2.85;;
4634;SDS011;2330;48.158;11.816;2024-02-26T01:06:54;3.40;;;3.20;;
4634;SDS011;2330;48.158;11.816;2024-02-26T01:09:21;3.30;;;3.10;;
4634;SDS011;2330;48.158;11.816;2024-02-26T01:11:48;3.38;;;3.13;;
4634;SDS011;2330;48.158;11.816;2024-02-26T01:14:14;3.00;;;2.80;;
4634;SDS011;2330;48.158;11.816;2024-02-26T01:16:41;2.80;;;2.60;;
4634;SDS011;2330;48.158;11.816;2024-02-26T01:19:08;2.78;;;2.45;;
4634;SDS011;2330;48.158;11.816;2024-02-26T01:21:35;3.50;;;2.95;;
4634;SDS011;2330;48.158;11.816;2024-02-26T01:24:02;3.33;;;3.03;;
4634;SDS011;2330;48.158;11.816;2024-02-26T01:26:29;3.77;;;3.57;;
4634;SDS011;2330;48.158;11.816;2024-02-26T01:28:55;3.90;;;3.53;;
4634;SDS011;2330;48.158;11.816;2024-02-26T01:31:22;4.65;;;3.50;;
4634;SDS011;2330;48.158;11.816;2024-02-26T01:33:49;3.00;;;2.80;;
4634;SDS011;2330;48.158;11.816;2024-02-26T01:36:16;3.03;;;2.83;;
4634;SDS011;2330;48.158;11.816;2024-02-26T01:38:43;2.80;;;2.70;;
4634;SDS011;2330;48.158;11.816;2024-02-26T01:41:10;3.60;;;3.30;;
4634;SDS011;2330;48.158;11.816;2024-02-26T01:43:37;3.40;;;3.20;;
4634;SDS011;2330;48.158;11.816;2024-02-26T01:46:03;4.45;;;3.72;;
4634;SDS011;2330;48.158;11.816;2024-02-26T01:48:31;3.75;;;3.20;;
4634;SDS011;2330;48.158;11.816;2024-02-26T01:50:58;3.40;;;3.15;;
4634;SDS011;2330;48.158;11.816;2024-02-26T01:53:25;3.63;;;3.33;;
4634;SDS011;2330;48.158;11.816;2024-02-26T01:55:51;3.75;;;3.45;;
4634;SDS011;2330;48.158;11.816;2024-02-26T01:58:18;3.25;;;3.00;;
4634;SDS011;2330;48.158;11.816;2024-02-26T02:00:46;3.50;;;3.25;;
4634;SDS011;2330;48.158;11.816;2024-02-26T02:03:13;3.55;;;3.10;;
4634;SDS011;2330;48.158;11.816;2024-02-26T02:05:40;3.53;;;3.33;;
4634;SDS011;2330;48.158;11.816;2024-02-26T02:08:10;3.72;;;3.45;;
4634;SDS011;2330;48.158;11.816;2024-02-26T02:10:38;3.55;;;3.10;;
4634;SDS011;2330;48.158;11.816;2024-02-26T02:13:05;3.97;;;3.50;;
4634;SDS011;2330;48.158;11.816;2024-02-26T02:15:32;3.67;;;3.47;;
4634;SDS011;2330;48.158;11.816;2024-02-26T02:17:59;2.63;;;2.53;;
4634;SDS011;2330;48.158;11.816;2024-02-26T02:20:33;2.72;;;2.53;;
4634;SDS011;2330;48.158;11.816;2024-02-26T02:23:00;6.15;;;2.85;;
4634;SDS011;2330;48.158;11.816;2024-02-26T02:25:27;3.53;;;3.22;;
4634;SDS011;2330;48.158;11.816;2024-02-26T02:27:55;4.40;;;2.60;;
4634;SDS011;2330;48.158;11.816;2024-02-26T02:30:26;2.92;;;2.72;;
4634;SDS011;2330;48.158;11.816;2024-02-26T02:32:55;3.97;;;2.88;;
4634;SDS011;2330;48.158;11.816;2024-02-26T02:35:25;3.03;;;2.80;;
4634;SDS011;2330;48.158;11.816;2024-02-26T02:37:52;3.70;;;3.40;;
4634;SDS011;2330;48.158;11.816;2024-02-26T02:40:19;2.80;;;2.60;;
4634;SDS011;2330;48.158;11.816;2024-02-26T02:42:46;2.85;;;2.65;;
4634;SDS011;2330;48.158;11.816;2024-02-26T02:45:12;2.53;;;2.13;;
4634;SDS011;2330;48.158;11.816;2024-02-26T02:47:39;2.50;;;2.10;;
4634;SDS011;2330;48.158;11.816;2024-02-26T02:50:06;2.38;;;2.28;;
4634;SDS011;2330;48.158;11.816;2024-02-26T02:52:33;2.35;;;2.15;;
4634;SDS011;2330;48.158;11.816;2024-02-26T02:55:00;2.30;;;2.10;;
4634;SDS011;2330;48.158;11.816;2024-02-26T02:57:27;2.17;;;2.08;;
4634;SDS011;2330;48.158;11.816;2024-02-26T02:59:55;2.33;;;2.22;;
4634;SDS011;2330;48.158;11.816;2024-02-26T03:02:22;2.45;;;2.33;;
4634;SDS011;2330;48.158;11.816;2024-02-26T03:04:51;2.35;;;2.20;;
4634;SDS011;2330;48.158;11.816;2024-02-26T03:07:18;2.50;;;2.30;;
4634;SDS011;2330;48.158;11.816;2024-02-26T03:09:45;2.50;;;2.40;;
4634;SDS011;2330;48.158;11.816;2024-02-26T03:12:11;2.40;;;2.30;;
4634;SDS011;2330;48.158;11.816;2024-02-26T03:14:38;3.63;;;3.33;;
4634;SDS011;2330;48.158;11.816;2024-02-26T03:17:05;4.10;;;3.80;;
4634;SDS011;2330;48.158;11.816;2024-02-26T03:19:32;3.88;;;3.58;;
4634;SDS011;2330;48.158;11.816;2024-02-26T03:21:58;4.32;;;4.03;;
4634;SDS011;2330;48.158;11.816;2024-02-26T03:24:25;3.95;;;3.65;;
4634;SDS011;2330;48.158;11.816;2024-02-26T03:26:52;3.70;;;3.45;;
4634;SDS011;2330;48.158;11.816;2024-02-26T03:29:19;3.72;;;3.53;;
4634;SDS011;2330;48.158;11.816;2024-02-26T03:31:46;4.25;;;3.85;;
4634;SDS011;2330;48.158;11.816;2024-02-26T03:34:12;3.85;;;3.65;;
4634;SDS011;2330;48.158;11.816;2024-02-26T03:36:41;3.70;;;3.50;;
4634;SDS011;2330;48.158;11.816;2024-02-26T03:39:08;4.38;;;3.97;;
4634;SDS011;2330;48.158;11.816;2024-02-26T03:41:35;3.90;;;3.60;;
4634;SDS011;2330;48.158;11.816;2024-02-26T03:44:02;3.47;;;3.28;;
4634;SDS011;2330;48.158;11.816;2024-02-26T03:46:29;3.35;;;3.13;;
4634;SDS011;2330;48.158;11.816;2024-02-26T03:48:55;3.45;;;3.25;;
4634;SDS011;2330;48.158;11.816;2024-02-26T03:51:23;3.97;;;3.22;;
4634;SDS011;2330;48.158;11.816;2024-02-26T03:53:49;3.67;;;3.47;;
4634;SDS011;2330;48.158;11.816;2024-02-26T03:56:16;3.83;;;3.58;;
4634;SDS011;2330;48.158;11.816;2024-02-26T03:58:43;3.78;;;3.53;;
4634;SDS011;2330;48.158;11.816;2024-02-26T04:01:10;4.30;;;4.00;;
4634;SDS011;2330;48.158;11.816;2024-02-26T04:03:37;4.13;;;3.83;;
4634;SDS011;2330;48.158;11.816;2024-02-26T04:06:04;3.78;;;3.55;;
4634;SDS011;2330;48.158;11.816;2024-02-26T04:08:34;3.10;;;2.95;;
4634;SDS011;2330;48.158;11.816;2024-02-26T04:11:01;3.72;;;3.42;;
4634;SDS011;2330;48.158;11.816;2024-02-26T04:13:29;3.83;;;3.45;;
4634;SDS011;2330;48.158;11.816;2024-02-26T04:15:55;4.22;;;3.03;;
4634;SDS011;2330;48.158;11.816;2024-02-26T04:18:24;3.50;;;2.70;;
4634;SDS011;2330;48.158;11.816;2024-02-26T04:20:51;3.15;;;2.78;;
4634;SDS011;2330;48.158;11.816;2024-02-26T04:23:17;3.92;;;2.78;;
4634;SDS011;2330;48.158;11.816;2024-02-26T04:25:44;3.08;;;2.88;;
4634;SDS011;2330;48.158;11.816;2024-02-26T04:28:11;3.03;;;2.80;;
4634;SDS011;2330;48.158;11.816;2024-02-26T04:30:38;2.80;;;2.50;;
4634;SDS011;2330;48.158;11.816;2024-02-26T04:33:05;2.78;;;2.60;;
4634;SDS011;2330;48.158;11.816;2024-02-26T04:35:32;2.50;;;2.30;;
4634;SDS011;2330;48.158;11.816;2024-02-26T04:38:01;2.80;;;2.60;;
4634;SDS011;2330;48.158;11.816;2024-02-26T04:40:28;2.45;;;2.35;;
4634;SDS011;2330;48.158;11.816;2024-02-26T04:42:54;2.42;;;2.30;;
4634;SDS011;2330;48.158;11.816;2024-02-26T04:45:21;2.35;;;2.15;;
4634;SDS011;2330;48.158;11.816;2024-02-26T04:47:48;2.50;;;2.30;;
4634;SDS011;2330;48.158;11.816;2024-02-26T04:50:15;4.72;;;2.28;;
4634;SDS011;2330;48.158;11.816;2024-02-26T04:52:42;2.22;;;2.13;;
4634;SDS011;2330;48.158;11.816;2024-02-26T04:55:08;2.08;;;1.85;;
4634;SDS011;2330;48.158;11.816;2024-02-26T04:57:35;6.00;;;2.00;;
4634;SDS011;2330;48.158;11.816;2024-02-26T05:00:03;3.08;;;2.08;;
4634;SDS011;2330;48.158;11.816;2024-02-26T05:02:31;2.10;;;2.00;;
4634;SDS011;2330;48.158;11.816;2024-02-26T05:04:59;1.95;;;1.80;;
4634;SDS011;2330;48.158;11.816;2024-02-26T05:07:26;2.20;;;2.10;;
4634;SDS011;2330;48.158;11.816;2024-02-26T05:09:53;2.88;;;2.35;;
4634;SDS011;2330;48.158;11.816;2024-02-26T05:12:20;2.25;;;2.13;;
4634;SDS011;2330;48.158;11.816;2024-02-26T05:14:47;2.30;;;2.10;;
4634;SDS011;2330;48.158;11.816;2024-02-26T05:17:13;2.30;;;2.00;;
4634;SDS011;2330;48.158;11.816;2024-02-26T05:19:40;3.78;;;2.15;;
4634;SDS011;2330;48.158;11.816;2024-02-26T05:22:07;3.80;;;3.50;;
4634;SDS011;2330;48.158;11.816;2024-02-26T05:24:34;2.53;;;2.30;;
4634;SDS011;2330;48.158;11.816;2024-02-26T05:27:04;2.90;;;2.70;;
4634;SDS011;2330;48.158;11.816;2024-02-26T05:29:31;5.35;;;4.65;;
4634;SDS011;2330;48.158;11.816;2024-02-26T05:31:57;4.95;;;4.55;;
4634;SDS011;2330;48.158;11.816;2024-02-26T05:34:24;4.22;;;3.60;;
4634;SDS011;2330;48.158;11.816;2024-02-26T05:36:51;3.03;;;2.83;;
4634;SDS011;2330;48.158;11.816;2024-02-26T05:39:18;2.60;;;2.40;;
4634;SDS011;2330;48.158;11.816;2024-02-26T05:41:46;2.47;;;2.38;;
4634;SDS011;2330;48.158;11.816;2024-02-26T05:44:13;2.10;;;1.88;;
4634;SDS011;2330;48.158;11.816;2024-02-26T05:46:41;5.85;;;2.20;;
4634;SDS011;2330;48.158;11.816;2024-02-26T05:49:08;3.20;;;2.00;;
4634;SDS011;2330;48.158;11.816;2024-02-26T05:51:35;2.10;;;2.00;;
4634;SDS011;2330;48.158;11.816;2024-02-26T05:54:02;2.38;;;2.10;;
4634;SDS011;2330;48.158;11.816;2024-02-26T05:56:28;2.65;;;2.08;;
4634;SDS011;2330;48.158;11.816;2024-02-26T05:58:55;2.42;;;2.10;;
4634;SDS011;2330;48.158;11.816;2024-02-26T06:01:22;3.75;;;2.22;;
4634;SDS011;2330;48.158;11.816;2024-02-26T06:03:50;2.50;;;2.30;;
4634;SDS011;2330;48.158;11.816;2024-02-26T06:06:17;2.30;;;2.10;;
4634;SDS011;2330;48.158;11.816;2024-02-26T06:08:44;2.13;;;2.00;;
4634;SDS011;2330;48.158;11.816;2024-02-26T06:11:11;2.08;;;1.98;;
4634;SDS011;2330;48.158;11.816;2024-02-26T06:13:38;2.40;;;2.25;;
4634;SDS011;2330;48.158;11.816;2024-02-26T06:16:07;2.00;;;1.90;;
4634;SDS011;2330;48.158;11.816;2024-02-26T06:18:34;3.08;;;2.58;;
4634;SDS011;2330;48.158;11.816;2024-02-26T06:21:01;2.22;;;2.03;;
4634;SDS011;2330;48.158;11.816;2024-02-26T06:23:28;2.40;;;2.20;;
4634;SDS011;2330;48.158;11.816;2024-02-26T06:25:55;2.08;;;1.55;;
4634;SDS011;2330;48.158;11.816;2024-02-26T06:28:22;3.60;;;2.00;;
4634;SDS011;2330;48.158;11.816;2024-02-26T06:30:48;2.83;;;2.25;;
4634;SDS011;2330;48.158;11.816;2024-02-26T06:33:16;3.47;;;2.60;;
4634;SDS011;2330;48.158;11.816;2024-02-26T06:35:43;4.25;;;2.47;;
4634;SDS011;2330;48.158;11.816;2024-02-26T06:38:10;2.17;;;2.05;;
4634;SDS011;2330;48.158;11.816;2024-02-26T06:40:39;2.65;;;2.30;;
4634;SDS011;2330;48.158;11.816;2024-02-26T06:43:06;2.35;;;2.15;;
4634;SDS011;2330;48.158;11.816;2024-02-26T06:45:32;1.48;;;1.48;;
4634;SDS011;2330;48.158;11.816;2024-02-26T06:47:59;3.30;;;2.25;;
4634;SDS011;2330;48.158;11.816;2024-02-26T06:50:27;2.40;;;2.20;;
4634;SDS011;2330;48.158;11.816;2024-02-26T06:52:54;2.63;;;2.47;;
4634;SDS011;2330;48.158;11.816;2024-02-26T06:55:21;1.90;;;1.80;;
4634;SDS011;2330;48.158;11.816;2024-02-26T06:57:48;2.15;;;2.05;;
4634;SDS011;2330;48.158;11.816;2024-02-26T07:00:14;2.67;;;2.38;;
4634;SDS011;2330;48.158;11.816;2024-02-26T07:02:43;6.32;;;1.77;;
4634;SDS011;2330;48.158;11.816;2024-02-26T07:05:10;1.70;;;1.60;;
4634;SDS011;2330;48.158;11.816;2024-02-26T07:07:37;2.10;;;2.00;;
4634;SDS011;2330;48.158;11.816;2024-02-26T07:10:04;3.65;;;2.90;;
4634;SDS011;2330;48.158;11.816;2024-02-26T07:12:32;2.00;;;1.90;;
4634;SDS011;2330;48.158;11.816;2024-02-26T07:14:59;4.38;;;2.20;;
4634;SDS011;2330;48.158;11.816;2024-02-26T07:17:27;4.32;;;1.88;;
4634;SDS011;2330;48.158;11.816;2024-02-26T07:19:54;4.10;;;2.57;;
4634;SDS011;2330;48.158;11.816;2024-02-26T07:22:21;2.35;;;2.15;;
4634;SDS011;2330;48.158;11.816;2024-02-26T07:24:48;7.70;;;3.70;;
4634;SDS011;2330;48.158;11.816;2024-02-26T07:27:14;12.70;;;10.50;;
4634;SDS011;2330;48.158;11.816;2024-02-26T07:29:44;11.13;;;4.63;;
4634;SDS011;2330;48.158;11.816;2024-02-26T07:32:11;3.05;;;2.85;;
4634;SDS011;2330;48.158;11.816;2024-02-26T07:34:37;3.75;;;3.20;;
4634;SDS011;2330;48.158;11.816;2024-02-26T07:37:08;7.63;;;3.25;;
4634;SDS011;2330;48.158;11.816;2024-02-26T07:39:35;4.43;;;3.30;;
4634;SDS011;2330;48.158;11.816;2024-02-26T07:42:03;7.43;;;3.42;;
4634;SDS011;2330;48.158;11.816;2024-02-26T07:44:30;2.97;;;2.77;;
4634;SDS011;2330;48.158;11.816;2024-02-26T07:46:57;5.00;;;4.53;;
4634;SDS011;2330;48.158;11.816;2024-02-26T07:49:24;18.58;;;12.95;;
4634;SDS011;2330;48.158;11.816;2024-02-26T07:51:52;55.85;;;37.13;;
4634;SDS011;2330;48.158;11.816;2024-02-26T07:54:18;27.00;;;18.08;;
4634;SDS011;2330;48.158;11.816;2024-02-26T07:56:45;50.17;;;33.90;;
4634;SDS011;2330;48.158;11.816;2024-02-26T07:59:13;65.23;;;44.63;;
4634;SDS011;2330;48.158;11.816;2024-02-26T08:01:40;57.80;;;39.47;;
4634;SDS011;2330;48.158;11.816;2024-02-26T08:04:08;35.30;;;28.10;;
4634;SDS011;2330;48.158;11.816;2024-02-26T08:06:35;4.93;;;4.45;;
4634;SDS011;2330;48.158;11.816;2024-02-26T08:09:04;1.50;;;1.40;;
4634;SDS011;2330;48.158;11.816;2024-02-26T08:11:31;2.10;;;1.57;;
4634;SDS011;2330;48.158;11.816;2024-02-26T08:13:58;1.57;;;1.37;;
4634;SDS011;2330;48.158;11.816;2024-02-26T08:16:25;1.73;;;1.60;;
4634;SDS011;2330;48.158;11.816;2024-02-26T08:18:53;1.77;;;1.67;;
4634;SDS011;2330;48.158;11.816;2024-02-26T08:21:20;2.60;;;1.70;;
4634;SDS011;2330;48.158;11.816;2024-02-26T08:23:47;1.90;;;1.80;;
4634;SDS011;2330;48.158;11.816;2024-02-26T08:26:14;3.80;;;2.00;;
4634;SDS011;2330;48.158;11.816;2024-02-26T08:28:41;2.83;;;1.90;;
4634;SDS011;2330;48.158;11.816;2024-02-26T08:31:07;1.90;;;1.60;;
4634;SDS011;2330;48.158;11.816;2024-02-26T08:33:37;5.87;;;1.70;;
4634;SDS011;2330;48.158;11.816;2024-02-26T08:36:05;3.03;;;1.90;;
4634;SDS011;2330;48.158;11.816;2024-02-26T08:38:32;1.80;;;1.70;;
4634;SDS011;2330;48.158;11.816;2024-02-26T08:41:01;3.00;;;2.30;;
4634;SDS011;2330;48.158;11.816;2024-02-26T08:43:29;3.10;;;2.80;;
4634;SDS011;2330;48.158;11.816;2024-02-26T08:45:56;2.37;;;2.17;;
4634;SDS011;2330;48.158;11.816;2024-02-26T08:48:23;3.60;;;2.13;;
4634;SDS011;2330;48.158;11.816;2024-02-26T08:50:51;1.80;;;1.70;;
4634;SDS011;2330;48.158;11.816;2024-02-26T08:53:18;3.73;;;1.70;;
4634;SDS011;2330;48.158;11.816;2024-02-26T08:55:56;2.63;;;2.43;;
4634;SDS011;2330;48.158;11.816;2024-02-26T08:58:23;2.40;;;2.20;;
4634;SDS011;2330;48.158;11.816;2024-02-26T09:00:50;2.43;;;2.03;;
4634;SDS011;2330;48.158;11.816;2024-02-26T09:03:17;4.83;;;1.87;;
4634;SDS011;2330;48.158;11.816;2024-02-26T09:05:44;7.23;;;2.13;;
4634;SDS011;2330;48.158;11.816;2024-02-26T09:08:11;2.00;;;1.90;;
4634;SDS011;2330;48.158;11.816;2024-02-26T09:10:38;2.27;;;2.07;;
4634;SDS011;2330;48.158;11.816;2024-02-26T09:13:05;2.30;;;2.20;;
4634;SDS011;2330;48.158;11.816;2024-02-26T09:15:32;2.20;;;2.00;;
4634;SDS011;2330;48.158;11.816;2024-02-26T09:17:59;2.00;;;1.90;;
4634;SDS011;2330;48.158;11.816;2024-02-26T09:20:26;2.00;;;1.80;;
4634;SDS011;2330;48.158;11.816;2024-02-26T09:22:53;1.70;;;1.60;;
4634;SDS011;2330;48.158;11.816;2024-02-26T09:25:20;2.00;;;1.90;;
4634;SDS011;2330;48.158;11.816;2024-02-26T09:27:46;4.97;;;1.73;;
4634;SDS011;2330;48.158;11.816;2024-02-26T09:30:14;2.13;;;1.47;;
4634;SDS011;2330;48.158;11.816;2024-02-26T09:32:40;1.60;;;1.50;;
4634;SDS011;2330;48.158;11.816;2024-02-26T09:35:07;12.10;;;9.40;;
4634;SDS011;2330;48.158;11.816;2024-02-26T09:37:34;21.23;;;11.73;;
4634;SDS011;2330;48.158;11.816;2024-02-26T09:40:03;5.07;;;4.43;;
4634;SDS011;2330;48.158;11.816;2024-02-26T09:42:32;4.40;;;3.20;;
4634;SDS011;2330;48.158;11.816;2024-02-26T09:45:01;10.10;;;5.97;;
4634;SDS011;2330;48.158;11.816;2024-02-26T09:47:35;2.20;;;2.10;;
4634;SDS011;2330;48.158;11.816;2024-02-26T09:50:02;1.80;;;1.70;;
4634;SDS011;2330;48.158;11.816;2024-02-26T09:52:30;1.40;;;1.30;;
4634;SDS011;2330;48.158;11.816;2024-02-26T09:54:59;2.63;;;1.60;;
4634;SDS011;2330;48.158;11.816;2024-02-26T09:57:26;1.57;;;1.47;;
4634;SDS011;2330;48.158;11.816;2024-02-26T09:59:54;1.70;;;1.60;;
4634;SDS011;2330;48.158;11.816;2024-02-26T10:02:25;3.10;;;1.67;;
4634;SDS011;2330;48.158;11.816;2024-02-26T10:04:53;2.07;;;1.80;;
4634;SDS011;2330;48.158;11.816;2024-02-26T10:07:22;3.77;;;2.00;;
4634;SDS011;2330;48.158;11.816;2024-02-26T10:09:49;3.90;;;2.10;;
4634;SDS011;2330;48.158;11.816;2024-02-26T10:12:16;5.80;;;2.40;;
4634;SDS011;2330;48.158;11.816;2024-02-26T10:14:44;3.53;;;1.80;;
4634;SDS011;2330;48.158;11.816;2024-02-26T10:17:11;1.83;;;1.70;;
4634;SDS011;2330;48.158;11.816;2024-02-26T10:19:38;1.90;;;1.80;;
4634;SDS011;2330;48.158;11.816;2024-02-26T10:22:05;4.20;;;1.83;;
4634;SDS011;2330;48.158;11.816;2024-02-26T10:24:32;1.87;;;1.60;;
4634;SDS011;2330;48.158;11.816;2024-02-26T10:27:01;3.67;;;1.97;;
4634;SDS011;2330;48.158;11.816;2024-02-26T10:29:28;2.73;;;2.20;;
4634;SDS011;2330;48.158;11.816;2024-02-26T10:31:55;2.40;;;2.20;;
4634;SDS011;2330;48.158;11.816;2024-02-26T10:34:22;3.33;;;2.23;;
4634;SDS011;2330;48.158;11.816;2024-02-26T10:36:50;2.50;;;2.27;;
4634;SDS011;2330;48.158;11.816;2024-02-26T10:39:20;2.57;;;2.37;;
4634;SDS011;2330;48.158;11.816;2024-02-26T10:41:48;1.97;;;1.87;;
4634;SDS011;2330;48.158;11.816;2024-02-26T10:44:15;1.90;;;1.80;;
4634;SDS011;2330;48.158;11.816;2024-02-26T10:46:44;1.50;;;1.40;;
4634;SDS011;2330;48.158;11.816;2024-02-26T10:49:15;1.70;;;1.60;;
4634;SDS011;2330;48.158;11.816;2024-02-26T10:51:50;1.67;;;1.57;;
4634;SDS011;2330;48.158;11.816;2024-02-26T10:54:21;2.20;;;1.50;;
4634;SDS011;2330;48.158;11.816;2024-02-26T10:56:52;1.43;;;1.33;;
4634;SDS011;2330;48.158;11.816;2024-02-26T10:59:20;4.37;;;1.67;;
4634;SDS011;2330;48.158;11.816;2024-02-26T11:01:48;1.37;;;1.13;;
4634;SDS011;2330;48.158;11.816;2024-02-26T11:04:16;2.17;;;1.20;;
4634;SDS011;2330;48.158;11.816;2024-02-26T11:06:44;1.00;;;1.00;;
4634;SDS011;2330;48.158;11.816;2024-02-26T11:09:12;2.20;;;0.87;;
4634;SDS011;2330;48.158;11.816;2024-02-26T11:11:41;1.00;;;0.80;;
4634;SDS011;2330;48.158;11.816;2024-02-26T11:14:08;1.27;;;1.17;;
4634;SDS011;2330;48.158;11.816;2024-02-26T11:16:39;0.93;;;0.83;;
4634;SDS011;2330;48.158;11.816;2024-02-26T11:19:09;2.00;;;0.90;;
4634;SDS011;2330;48.158;11.816;2024-02-26T11:21:37;1.37;;;0.70;;
4634;SDS011;2330;48.158;11.816;2024-02-26T11:24:09;2.17;;;1.40;;
4634;SDS011;2330;48.158;11.816;2024-02-26T11:26:43;2.40;;;1.90;;
4634;SDS011;2330;48.158;11.816;2024-02-26T11:29:33;1.30;;;1.20;;
4634;SDS011;2330;48.158;11.816;2024-02-26T11:32:06;2.47;;;1.03;;
4634;SDS011;2330;48.158;11.816;2024-02-26T11:34:33;1.10;;;1.00;;
4634;SDS011;2330;48.158;11.816;2024-02-26T11:37:10;1.00;;;0.90;;
4634;SDS011;2330;48.158;11.816;2024-02-26T11:39:39;1.30;;;0.87;;
4634;SDS011;2330;48.158;11.816;2024-02-26T11:42:14;2.20;;;1.00;;
4634;SDS011;2330;48.158;11.816;2024-02-26T11:44:41;1.33;;;0.87;;
4634;SDS011;2330;48.158;11.816;2024-02-26T11:47:12;0.70;;;0.70;;
4634;SDS011;2330;48.158;11.816;2024-02-26T11:49:45;0.90;;;0.90;;
4634;SDS011;2330;48.158;11.816;2024-02-26T11:52:13;1.10;;;0.93;;
4634;SDS011;2330;48.158;11.816;2024-02-26T11:54:50;1.40;;;1.30;;
4634;SDS011;2330;48.158;11.816;2024-02-26T11:59:55;1.07;;;0.97;;
4634;SDS011;2330;48.158;11.816;2024-02-26T12:02:40;0.87;;;0.87;;
4634;SDS011;2330;48.158;11.816;2024-02-26T12:05:53;2.80;;;1.10;;
4634;SDS011;2330;48.158;11.816;2024-02-26T12:08:08;1.40;;;1.27;;
4634;SDS011;2330;48.158;11.816;2024-02-26T12:10:36;1.20;;;1.10;;
4634;SDS011;2330;48.158;11.816;2024-02-26T12:13:11;1.57;;;1.10;;
4634;SDS011;2330;48.158;11.816;2024-02-26T12:15:46;0.83;;;0.83;;
4634;SDS011;2330;48.158;11.816;2024-02-26T12:18:21;1.10;;;1.00;;
4634;SDS011;2330;48.158;11.816;2024-02-26T12:21:01;1.57;;;0.80;;
4634;SDS011;2330;48.158;11.816;2024-02-26T12:23:30;4.00;;;1.90;;
4634;SDS011;2330;48.158;11.816;2024-02-26T12:26:00;1.63;;;1.53;;
4634;SDS011;2330;48.158;11.816;2024-02-26T12:28:31;3.33;;;1.23;;
4634;SDS011;2330;48.158;11.816;2024-02-26T12:30:58;1.10;;;1.00;;
4634;SDS011;2330;48.158;11.816;2024-02-26T12:33:26;1.10;;;1.00;;
4634;SDS011;2330;48.158;11.816;2024-02-26T12:35:54;1.70;;;1.47;;
4634;SDS011;2330;48.158;11.816;2024-02-26T12:38:22;2.53;;;1.80;;
4634;SDS011;2330;48.158;11.816;2024-02-26T12:40:49;1.57;;;1.37;;
4634;SDS011;2330;48.158;11.816;2024-02-26T12:43:16;1.40;;;1.30;;
4634;SDS011;2330;48.158;11.816;2024-02-26T12:45:43;5.70;;;1.40;;
4634;SDS011;2330;48.158;11.816;2024-02-26T12:48:14;2.80;;;1.80;;
4634;SDS011;2330;48.158;11.816;2024-02-26T12:50:44;2.40;;;2.20;;
4634;SDS011;2330;48.158;11.816;2024-02-26T12:53:14;2.97;;;2.67;;
4634;SDS011;2330;48.158;11.816;2024-02-26T12:55:41;3.40;;;2.93;;
4634;SDS011;2330;48.158;11.816;2024-02-26T12:58:09;3.40;;;2.90;;
4634;SDS011;2330;48.158;11.816;2024-02-26T13:00:36;4.60;;;3.30;;
4634;SDS011;2330;48.158;11.816;2024-02-26T13:03:03;5.00;;;3.20;;
4634;SDS011;2330;48.158;11.816;2024-02-26T13:05:30;4.57;;;4.17;;
4634;SDS011;2330;48.158;11.816;2024-02-26T13:07:57;3.67;;;3.37;;
4634;SDS011;2330;48.158;11.816;2024-02-26T13:10:24;4.33;;;3.10;;
4634;SDS011;2330;48.158;11.816;2024-02-26T13:12:52;2.90;;;2.70;;
4634;SDS011;2330;48.158;11.816;2024-02-26T13:15:20;4.67;;;3.43;;
4634;SDS011;2330;48.158;11.816;2024-02-26T13:17:48;4.90;;;4.40;;
4634;SDS011;2330;48.158;11.816;2024-02-26T13:20:26;5.40;;;4.30;;
4634;SDS011;2330;48.158;11.816;2024-02-26T13:23:02;5.33;;;4.83;;
4634;SDS011;2330;48.158;11.816;2024-02-26T13:25:36;4.30;;;4.00;;
4634;SDS011;2330;48.158;11.816;2024-02-26T13:28:14;4.13;;;3.80;;
4634;SDS011;2330;48.158;11.816;2024-02-26T13:30:50;5.10;;;4.53;;
4634;SDS011;2330;48.158;11.816;2024-02-26T13:33:19;3.53;;;3.23;;
4634;SDS011;2330;48.158;11.816;2024-02-26T13:35:46;4.10;;;3.70;;
4634;SDS011;2330;48.158;11.816;2024-02-26T13:38:12;2.77;;;2.57;;
4634;SDS011;2330;48.158;11.816;2024-02-26T13:40:39;3.80;;;3.40;;
4634;SDS011;2330;48.158;11.816;2024-02-26T13:43:07;2.97;;;2.73;;
4634;SDS011;2330;48.158;11.816;2024-02-26T13:45:34;3.30;;;3.10;;
4634;SDS011;2330;48.158;11.816;2024-02-26T13:48:03;3.17;;;2.67;;
4634;SDS011;2330;48.158;11.816;2024-02-26T13:50:31;3.27;;;2.97;;
4634;SDS011;2330;48.158;11.816;2024-02-26T13:52:58;2.90;;;2.70;;
4634;SDS011;2330;48.158;11.816;2024-02-26T13:55:25;3.93;;;3.10;;
4634;SDS011;2330;48.158;11.816;2024-02-26T13:57:55;3.20;;;2.83;;
4634;SDS011;2330;48.158;11.816;2024-02-26T14:00:23;3.33;;;2.23;;
4634;SDS011;2330;48.158;11.816;2024-02-26T14:02:51;3.67;;;2.63;;
4634;SDS011;2330;48.158;11.816;2024-02-26T14:05:18;3.40;;;3.10;;
4634;SDS011;2330;48.158;11.816;2024-02-26T14:07:45;2.63;;;2.43;;
4634;SDS011;2330;48.158;11.816;2024-02-26T14:10:17;2.43;;;2.20;;
4634;SDS011;2330;48.158;11.816;2024-02-26T14:12:44;2.10;;;1.90;;
4634;SDS011;2330;48.158;11.816;2024-02-26T14:15:10;2.20;;;2.00;;
4634;SDS011;2330;48.158;11.816;2024-02-26T14:17:37;2.30;;;2.10;;
4634;SDS011;2330;48.158;11.816;2024-02-26T14:20:04;2.53;;;2.33;;
4634;SDS011;2330;48.158;11.816;2024-02-26T14:22:34;3.37;;;2.57;;
4634;SDS011;2330;48.158;11.816;2024-02-26T14:25:01;2.40;;;2.20;;
4634;SDS011;2330;48.158;11.816;2024-02-26T14:27:28;4.00;;;2.13;;
4634;SDS011;2330;48.158;11.816;2024-02-26T14:29:55;2.80;;;2.57;;
4634;SDS011;2330;48.158;11.816;2024-02-26T14:32:22;2.27;;;2.07;;
4634;SDS011;2330;48.158;11.816;2024-02-26T14:34:49;2.50;;;1.53;;
4634;SDS011;2330;48.158;11.816;2024-02-26T14:37:16;2.40;;;2.20;;
4634;SDS011;2330;48.158;11.816;2024-02-26T14:39:42;1.93;;;1.83;;
4634;SDS011;2330;48.158;11.816;2024-02-26T14:42:09;2.13;;;1.93;;
4634;SDS011;2330;48.158;11.816;2024-02-26T14:44:36;2.43;;;1.87;;
4634;SDS011;2330;48.158;11.816;2024-02-26T14:47:03;2.00;;;1.80;;
4634;SDS011;2330;48.158;11.816;2024-02-26T14:49:30;2.37;;;1.70;;
4634;SDS011;2330;48.158;11.816;2024-02-26T14:51:58;1.70;;;1.60;;
4634;SDS011;2330;48.158;11.816;2024-02-26T14:54:25;2.03;;;1.30;;
4634;SDS011;2330;48.158;11.816;2024-02-26T14:56:52;2.80;;;1.80;;
4634;SDS011;2330;48.158;11.816;2024-02-26T14:59:19;4.20;;;1.60;;
4634;SDS011;2330;48.158;11.816;2024-02-26T15:01:45;3.10;;;2.00;;
4634;SDS011;2330;48.158;11.816;2024-02-26T15:04:13;2.60;;;1.73;;
4634;SDS011;2330;48.158;11.816;2024-02-26T15:06:40;2.50;;;2.10;;